Time;durP1;ratioP1;P1;durP2;ratioP2;P2;SDS_P1;SDS_P2;PMS_P1;PMS_P2;Temp;Humidity;BMP_temperature;BMP_pressure;BME280_temperature;BME280_humidity;BME280_pressure;Samples;Min_cycle;Max_cycle;Signal;HPM_P1;HPM_P2
2022/08/02 00:02:38;;;;;;;2.20;1.90;;;;;21.20;99063.00;;;;16796371;28;20636;-82
2022/08/02 00:10:42;;;;;;;1.93;1.70;;;;;21.20;99057.00;;;;16788231;28;20686;-82
2022/08/02 00:18:44;;;;;;;2.10;2.00;;;;;20.70;99062.00;;;;16793120;28;20245;-82
2022/08/02 00:26:48;;;;;;;1.97;1.87;;;;;20.70;99055.00;;;;16785184;28;20233;-82
2022/08/02 00:34:51;;;;;;;2.60;1.73;;;;;21.40;99053.00;;;;16800782;28;20205;-81
2022/08/02 00:43:06;;;;;;;2.57;2.37;;;;;22.20;99043.00;;;;16798980;28;20232;-82
2022/08/02 00:51:09;;;;;;;2.27;2.07;;;;;22.00;99042.00;;;;16785145;28;20680;-82
2022/08/02 00:59:13;;;;;;;2.40;2.20;;;;;20.90;99049.00;;;;16770886;28;20295;-82
2022/08/02 01:07:15;;;;;;;4.40;2.67;;;;;21.30;99052.00;;;;16774347;28;20225;-82
2022/08/02 01:15:19;;;;;;;2.70;2.30;;;;;21.00;99031.00;;;;16774747;28;20217;-82
2022/08/02 01:23:35;;;;;;;5.00;3.13;;;;;21.30;99039.00;;;;16784678;28;20251;-83
2022/08/02 01:31:44;;;;;;;2.70;2.50;;;;;21.50;99050.00;;;;16767836;28;20866;-82
2022/08/02 01:39:51;;;;;;;3.00;2.80;;;;;21.30;99050.00;;;;16785552;28;20749;-82
2022/08/02 01:47:55;;;;;;;3.20;3.00;;;;;21.60;99052.00;;;;16773949;28;20257;-82
2022/08/02 01:55:59;;;;;;;2.60;2.40;;;;;22.10;99051.00;;;;16764767;28;20292;-82
2022/08/02 02:04:04;;;;;;;2.80;2.60;;;;;21.20;99062.00;;;;16763131;28;20222;-82
2022/08/02 02:12:08;;;;;;;3.90;2.47;;;;;21.60;99058.00;;;;16765532;28;20313;-82
2022/08/02 02:20:16;;;;;;;3.67;3.37;;;;;21.50;99055.00;;;;16777227;28;20654;-82
2022/08/02 02:28:23;;;;;;;5.67;2.60;;;;;21.30;99060.00;;;;16779408;28;20248;-83
2022/08/02 02:36:26;;;;;;;2.80;2.60;;;;;22.00;99057.00;;;;16773566;28;20225;-83
2022/08/02 02:44:31;;;;;;;3.77;2.90;;;;;21.20;99050.00;;;;16777679;28;20354;-83
2022/08/02 02:52:35;;;;;;;3.30;3.00;;;;;21.60;99042.00;;;;16786422;28;20225;-81
2022/08/02 03:09:00;;;;;;;5.40;3.90;;;;;20.90;99044.00;;;;16810468;28;20249;-82
2022/08/02 03:17:02;;;;;;;4.43;3.50;;;;;20.30;99043.00;;;;16807382;28;20592;-82
2022/08/02 03:25:07;;;;;;;4.40;3.70;;;;;20.10;99041.00;;;;16810448;28;20244;-81
2022/08/02 03:33:10;;;;;;;5.80;4.07;;;;;20.10;99063.00;;;;16794297;28;20213;-81
2022/08/02 03:41:17;;;;;;;6.30;3.97;;;;;20.40;99068.00;;;;16805012;28;20213;-82
2022/08/02 03:49:19;;;;;;;4.00;3.70;;;;;20.60;99063.00;;;;16798226;28;20221;-82
2022/08/02 03:57:23;;;;;;;3.57;3.27;;;;;20.20;99067.00;;;;16783372;28;20290;-82
2022/08/02 04:05:26;;;;;;;3.73;3.43;;;;;19.50;99083.00;;;;16793694;28;20229;-82
2022/08/02 04:13:32;;;;;;;3.80;3.50;;;;;19.40;99092.00;;;;16805919;28;20553;-81
2022/08/02 04:21:37;;;;;;;5.40;4.20;;;;;19.50;99100.00;;;;16785321;28;20248;-81
2022/08/02 04:29:41;;;;;;;4.30;3.90;;;;;19.30;99112.00;;;;16769917;28;20243;-82
2022/08/02 04:37:44;;;;;;;3.83;3.53;;;;;19.20;99120.00;;;;16776950;28;20729;-82
2022/08/02 04:45:49;;;;;;;3.83;3.50;;;;;19.90;99114.00;;;;16752495;28;20300;-82
2022/08/02 04:53:52;;;;;;;3.40;3.10;;;;;19.70;99104.00;;;;16777186;28;20348;-82
2022/08/02 05:01:55;;;;;;;3.60;3.30;;;;;20.10;99102.00;;;;16774719;28;20249;-82
2022/08/02 05:09:58;;;;;;;7.00;5.13;;;;;20.60;99095.00;;;;16788810;28;20249;-82
2022/08/02 05:18:02;;;;;;;5.83;5.00;;;;;20.70;99098.00;;;;16776320;28;20607;-82
2022/08/02 05:26:04;;;;;;;5.70;5.20;;;;;21.30;99099.00;;;;16781064;28;20233;-82
2022/08/02 05:34:08;;;;;;;4.83;4.40;;;;;21.60;99088.00;;;;16763410;28;20201;-82
2022/08/02 05:42:10;;;;;;;26.70;24.30;;;;;22.00;99081.00;;;;16801986;28;20213;-81
2022/08/02 05:50:14;;;;;;;15.87;13.73;;;;;22.40;99085.00;;;;16789578;28;20228;-80
2022/08/02 05:58:21;;;;;;;21.73;16.43;;;;;23.40;99087.00;;;;16785238;28;20233;-81
2022/08/02 06:06:26;;;;;;;5.97;5.50;;;;;23.20;99084.00;;;;16781968;28;20231;-82
2022/08/02 06:14:31;;;;;;;6.40;5.80;;;;;24.20;99094.00;;;;16778510;28;20690;-79
2022/08/02 06:22:35;;;;;;;9.67;7.23;;;;;25.30;99082.00;;;;16757892;28;20271;-77
2022/08/02 06:30:37;;;;;;;8.03;4.20;;;;;25.80;99082.00;;;;16751120;28;20216;-78
2022/08/02 06:38:44;;;;;;;8.50;3.90;;;;;26.50;99079.00;;;;16778558;28;20244;-77
2022/08/02 06:46:47;;;;;;;5.20;3.70;;;;;26.90;99081.00;;;;16788072;28;20229;-77
2022/08/02 06:54:51;;;;;;;6.30;3.17;;;;;26.90;99073.00;;;;16788150;28;20215;-77
2022/08/02 07:02:53;;;;;;;4.37;3.80;;;;;26.10;99084.00;;;;16774298;28;20299;-78
2022/08/02 07:10:58;;;;;;;6.93;5.90;;;;;26.50;99087.00;;;;16778877;28;20232;-77
2022/08/02 07:19:00;;;;;;;7.80;4.93;;;;;26.60;99090.00;;;;16771476;28;20299;-74
2022/08/02 07:27:04;;;;;;;6.93;4.30;;;;;27.10;99099.00;;;;16776023;28;20627;-76
2022/08/02 07:35:07;;;;;;;5.13;3.40;;;;;27.00;99086.00;;;;16759788;28;20190;-76
2022/08/02 07:43:11;;;;;;;4.30;3.20;;;;;27.60;99088.00;;;;16757646;28;20217;-76
2022/08/02 07:51:14;;;;;;;5.30;3.80;;;;;27.80;99089.00;;;;16767835;28;20819;-76
2022/08/02 07:59:17;;;;;;;6.83;4.30;;;;;28.20;99097.00;;;;16754862;28;20689;-76
2022/08/02 08:07:20;;;;;;;5.43;3.80;;;;;28.40;99104.00;;;;16735243;28;20230;-76
2022/08/02 08:15:24;;;;;;;5.97;4.40;;;;;27.70;99093.00;;;;16765074;28;20358;-76
2022/08/02 08:23:26;;;;;;;10.20;7.27;;;;;27.30;99093.00;;;;16767783;28;20345;-75
2022/08/02 08:31:30;;;;;;;7.33;6.60;;;;;28.20;99092.00;;;;16776809;28;20330;-76
2022/08/02 08:39:32;;;;;;;6.73;5.23;;;;;28.10;99101.00;;;;16775409;28;20595;-76
2022/08/02 08:47:38;;;;;;;4.40;4.00;;;;;28.70;99097.00;;;;16781967;28;20221;-74
2022/08/02 08:55:40;;;;;;;5.10;4.60;;;;;28.40;99098.00;;;;16776357;28;20237;-76
2022/08/02 09:03:44;;;;;;;5.47;4.90;;;;;27.80;99090.00;;;;16776032;28;20244;-76
2022/08/02 09:11:47;;;;;;;4.00;3.63;;;;;28.90;99082.00;;;;16775655;28;20224;-76
2022/08/02 09:20:07;;;;;;;7.43;5.90;;;;;29.60;99083.00;;;;16774213;28;20290;-76
2022/08/02 09:28:09;;;;;;;5.47;4.97;;;;;29.30;99072.00;;;;16769920;28;20713;-76
2022/08/02 09:36:15;;;;;;;5.83;4.47;;;;;28.90;99071.00;;;;16766097;28;20300;-77
2022/08/02 09:44:17;;;;;;;5.73;5.13;;;;;29.00;99057.00;;;;16774892;28;20302;-76
2022/08/02 09:52:27;;;;;;;10.17;9.17;;;;;29.50;99058.00;;;;16771506;28;20316;-76
2022/08/02 10:00:30;;;;;;;15.67;8.87;;;;;29.40;99052.00;;;;16764134;28;20217;-76
2022/08/02 10:08:35;;;;;;;15.23;8.93;;;;;30.50;99053.00;;;;16758646;28;20225;-76
2022/08/02 10:16:39;;;;;;;16.10;11.00;;;;;31.80;99051.00;;;;16745712;28;20630;-79
2022/08/02 10:24:43;;;;;;;6.30;5.80;;;;;30.00;99038.00;;;;16757477;28;20300;-78
2022/08/02 10:32:47;;;;;;;9.97;6.10;;;;;30.70;99023.00;;;;16765590;28;20293;-78
2022/08/02 10:40:53;;;;;;;7.53;6.83;;;;;31.10;99025.00;;;;16770407;28;20217;-78
2022/08/02 10:49:18;;;;;;;13.93;12.63;;;;;33.50;99025.00;;;;16769550;28;20743;-78
2022/08/02 10:57:24;;;;;;;14.93;13.53;;;;;30.50;99010.00;;;;16749860;28;20771;-78
2022/08/02 11:05:29;;;;;;;9.30;7.70;;;;;32.00;99013.00;;;;16760668;28;20228;-78
2022/08/02 11:13:59;;;;;;;5.53;4.50;;;;;30.30;99008.00;;;;16750803;28;20224;-78
2022/08/02 11:22:08;;;;;;;5.57;5.10;;;;;32.40;98993.00;;;;16768845;28;20266;-79
2022/08/02 11:30:13;;;;;;;5.40;4.50;;;;;31.20;98991.00;;;;16756465;28;20320;-78
2022/08/02 11:38:19;;;;;;;6.47;4.90;;;;;31.70;98988.00;;;;16780051;28;20213;-78
2022/08/02 11:46:21;;;;;;;6.03;5.50;;;;;32.10;98991.00;;;;16766929;28;20313;-79
2022/08/02 11:54:31;;;;;;;5.90;5.40;;;;;33.20;98986.00;;;;16761665;28;20231;-78
2022/08/02 12:02:34;;;;;;;6.30;5.80;;;;;31.10;98980.00;;;;16772087;28;20308;-78
2022/08/02 12:10:48;;;;;;;5.93;5.40;;;;;30.90;98982.00;;;;16758262;28;20229;-79
2022/08/02 12:27:26;;;;;;;3.93;3.27;;;;;32.90;98974.00;;;;16758941;28;20313;-78
2022/08/02 12:35:31;;;;;;;5.37;4.83;;;;;34.70;98968.00;;;;16768979;28;20220;-78
2022/08/02 12:43:43;;;;;;;4.10;3.67;;;;;36.30;98958.00;;;;16778449;28;20213;-79
2022/08/02 12:51:47;;;;;;;4.33;3.93;;;;;36.50;98947.00;;;;16774507;28;20257;-79
2022/08/02 12:59:53;;;;;;;4.10;3.80;;;;;34.70;98938.00;;;;16754610;28;20213;-78
2022/08/02 13:07:56;;;;;;;4.43;4.03;;;;;36.40;98946.00;;;;16759576;28;20308;-79
2022/08/02 13:16:00;;;;;;;3.80;3.50;;;;;37.10;98943.00;;;;16750614;28;20586;-78
2022/08/02 13:24:02;;;;;;;4.30;3.90;;;;;35.70;98954.00;;;;16747313;28;20244;-78
2022/08/02 13:32:06;;;;;;;4.67;4.27;;;;;31.50;98947.00;;;;16742695;28;20213;-78
2022/08/02 13:40:10;;;;;;;5.13;4.20;;;;;31.70;98944.00;;;;16746884;28;20221;-78
2022/08/02 13:48:13;;;;;;;4.33;3.70;;;;;34.20;98942.00;;;;16755830;28;20312;-79
2022/08/02 13:56:16;;;;;;;5.23;3.27;;;;;34.90;98921.00;;;;16733579;28;20266;-78
2022/08/02 14:04:22;;;;;;;3.77;3.50;;;;;34.50;98911.00;;;;16746854;28;20243;-79
2022/08/02 14:12:25;;;;;;;3.97;3.67;;;;;34.80;98906.00;;;;16769172;28;20217;-78
2022/08/02 14:20:28;;;;;;;3.83;3.53;;;;;36.70;98904.00;;;;16770236;28;20221;-78
2022/08/02 14:28:31;;;;;;;3.77;3.57;;;;;35.60;98901.00;;;;16753856;28;20749;-79
2022/08/02 14:36:36;;;;;;;3.90;3.60;;;;;33.70;98903.00;;;;16769969;28;20223;-79
2022/08/02 14:44:39;;;;;;;4.50;4.10;;;;;34.90;98906.00;;;;16753474;28;20221;-79
2022/08/02 14:52:42;;;;;;;4.83;3.80;;;;;37.30;98889.00;;;;16746554;28;20725;-79
2022/08/02 15:00:45;;;;;;;4.53;2.80;;;;;33.60;98890.00;;;;16759421;28;20710;-78
2022/08/02 15:08:49;;;;;;;3.10;2.90;;;;;37.00;98888.00;;;;16767500;28;20237;-79
2022/08/02 15:16:51;;;;;;;5.47;3.00;;;;;35.40;98888.00;;;;16778200;28;20296;-79
2022/08/02 15:24:55;;;;;;;4.03;3.20;;;;;38.70;98882.00;;;;16746471;28;20347;-79
2022/08/02 15:32:58;;;;;;;2.73;2.53;;;;;35.60;98870.00;;;;16745699;28;20582;-79
2022/08/02 15:41:02;;;;;;;2.50;2.30;;;;;33.50;98868.00;;;;16752933;28;20221;-79
2022/08/02 15:49:04;;;;;;;3.10;2.87;;;;;35.60;98857.00;;;;16773820;28;20229;-78
2022/08/02 15:57:08;;;;;;;2.70;2.50;;;;;38.10;98862.00;;;;16763794;28;20311;-79
2022/08/02 16:05:11;;;;;;;3.47;3.20;;;;;37.80;98860.00;;;;16758040;28;20217;-79
2022/08/02 16:21:34;;;;;;;3.40;2.90;;;;;38.80;98861.00;;;;16761807;28;20721;-79
2022/08/02 16:29:38;;;;;;;3.20;2.90;;;;;42.10;98867.00;;;;16763630;28;20293;-77
2022/08/02 16:37:41;;;;;;;4.57;2.80;;;;;37.60;98856.00;;;;16774943;28;20229;-80
2022/08/02 16:45:45;;;;;;;3.20;3.00;;;;;40.80;98849.00;;;;16786120;28;20262;-81
2022/08/02 16:53:50;;;;;;;3.70;3.00;;;;;40.40;98850.00;;;;16778586;28;20228;-81
2022/08/02 17:01:53;;;;;;;3.67;3.13;;;;;40.30;98851.00;;;;16770008;28;20234;-81
2022/08/02 17:09:56;;;;;;;4.13;3.60;;;;;39.90;98854.00;;;;16772244;28;20217;-81
2022/08/02 17:18:00;;;;;;;3.40;2.67;;;;;40.40;98851.00;;;;16780062;28;20205;-80
2022/08/02 17:26:03;;;;;;;2.77;2.57;;;;;40.20;98856.00;;;;16788539;28;20251;-80
2022/08/02 17:34:07;;;;;;;3.80;2.70;;;;;35.00;98847.00;;;;16788958;28;20672;-80
2022/08/02 17:42:09;;;;;;;3.13;2.93;;;;;34.00;98852.00;;;;16774268;28;20245;-79
2022/08/02 17:50:13;;;;;;;3.50;3.20;;;;;32.30;98863.00;;;;16748573;28;20239;-79
2022/08/02 17:58:15;;;;;;;4.00;3.70;;;;;30.00;98866.00;;;;16747989;28;20223;-79
2022/08/02 18:06:19;;;;;;;4.60;4.17;;;;;29.10;98872.00;;;;16768842;28;20220;-80
2022/08/02 18:14:21;;;;;;;4.40;3.50;;;;;28.60;98868.00;;;;16773696;28;20217;-79
2022/08/02 18:22:25;;;;;;;4.03;3.80;;;;;27.90;98867.00;;;;16762461;28;20302;-80
2022/08/02 18:30:28;;;;;;;4.50;3.43;;;;;27.20;98865.00;;;;16758133;28;20232;-80
2022/08/02 18:38:32;;;;;;;5.07;4.13;;;;;26.90;98870.00;;;;16771180;28;20209;-79
2022/08/02 18:46:34;;;;;;;4.20;3.90;;;;;26.40;98866.00;;;;16757469;28;20767;-77
2022/08/02 18:54:38;;;;;;;4.10;3.80;;;;;26.90;98868.00;;;;16743355;28;20208;-77
2022/08/02 19:02:41;;;;;;;4.83;4.40;;;;;26.70;98872.00;;;;16753766;28;20231;-77
2022/08/02 19:10:45;;;;;;;7.20;4.70;;;;;26.50;98871.00;;;;16771461;28;20705;-77
2022/08/02 19:18:47;;;;;;;6.83;4.80;;;;;25.90;98871.00;;;;16764504;28;20229;-77
2022/08/02 19:26:51;;;;;;;4.67;4.33;;;;;25.60;98880.00;;;;16766473;28;20259;-77
2022/08/02 19:34:54;;;;;;;4.70;3.80;;;;;25.60;98881.00;;;;16754267;28;20829;-76
2022/08/02 19:42:58;;;;;;;5.10;4.60;;;;;25.50;98882.00;;;;16765274;28;20194;-77
2022/08/02 19:51:00;;;;;;;5.07;4.67;;;;;25.40;98891.00;;;;16779335;28;20304;-76
2022/08/02 19:59:07;;;;;;;4.90;4.50;;;;;25.20;98895.00;;;;16775314;28;20214;-76
2022/08/02 20:07:09;;;;;;;4.27;3.93;;;;;24.90;98886.00;;;;16769630;28;20228;-77
2022/08/02 20:15:13;;;;;;;6.03;5.53;;;;;24.50;98895.00;;;;16780834;28;20304;-78
2022/08/02 20:23:17;;;;;;;5.07;4.23;;;;;24.30;98896.00;;;;16771377;28;20332;-77
2022/08/02 20:31:21;;;;;;;5.27;4.77;;;;;24.70;98892.00;;;;16776329;28;20224;-77
2022/08/02 20:39:23;;;;;;;4.63;4.23;;;;;24.50;98890.00;;;;16768891;28;20221;-76
2022/08/02 20:47:27;;;;;;;4.40;4.10;;;;;24.10;98894.00;;;;16756990;28;20229;-76
2022/08/02 20:55:30;;;;;;;5.20;4.80;;;;;24.30;98910.00;;;;16765012;28;20213;-77
2022/08/02 21:03:33;;;;;;;4.97;4.50;;;;;24.10;98904.00;;;;16767246;28;20292;-77
2022/08/02 21:11:36;;;;;;;5.77;5.27;;;;;23.80;98909.00;;;;16756127;28;20950;-77
2022/08/02 21:19:40;;;;;;;5.13;4.73;;;;;23.60;98898.00;;;;16747843;28;20220;-76
2022/08/02 21:27:42;;;;;;;6.83;5.13;;;;;23.60;98899.00;;;;16757497;28;20240;-76
2022/08/02 21:35:46;;;;;;;5.10;4.70;;;;;23.50;98894.00;;;;16736335;28;20334;-76
2022/08/02 21:43:48;;;;;;;5.80;5.30;;;;;23.50;98896.00;;;;16732321;28;20209;-76
2022/08/02 21:51:53;;;;;;;5.20;4.70;;;;;23.30;98895.00;;;;16753536;28;20335;-76
2022/08/02 21:59:55;;;;;;;5.13;4.63;;;;;23.10;98891.00;;;;16746676;28;20225;-77
2022/08/02 22:07:59;;;;;;;6.30;5.80;;;;;23.70;98892.00;;;;16759952;28;20236;-76
2022/08/02 22:16:03;;;;;;;5.70;4.97;;;;;23.20;98905.00;;;;16772698;28;20305;-77
2022/08/02 22:24:08;;;;;;;4.40;4.10;;;;;22.90;98905.00;;;;16769740;28;20200;-77
2022/08/02 22:32:10;;;;;;;5.30;4.80;;;;;22.60;98917.00;;;;16763852;28;20328;-76
2022/08/02 22:40:14;;;;;;;5.80;4.50;;;;;22.80;98914.00;;;;16771635;28;20265;-77
2022/08/02 22:48:17;;;;;;;6.40;5.77;;;;;22.80;98915.00;;;;16771511;28;20629;-77
2022/08/02 22:56:21;;;;;;;4.80;4.40;;;;;22.30;98908.00;;;;16765264;28;20366;-76
2022/08/02 23:04:23;;;;;;;6.10;5.60;;;;;22.90;98916.00;;;;16755797;28;20197;-77
2022/08/02 23:12:27;;;;;;;5.30;4.90;;;;;22.60;98922.00;;;;16769636;28;20316;-77
2022/08/02 23:20:30;;;;;;;6.37;5.10;;;;;22.30;98931.00;;;;16771358;28;20216;-77
2022/08/02 23:28:34;;;;;;;5.83;5.33;;;;;22.30;98923.00;;;;16778219;28;20271;-77
2022/08/02 23:36:36;;;;;;;6.00;5.47;;;;;23.10;98923.00;;;;16782500;28;20606;-76
2022/08/02 23:44:40;;;;;;;5.20;4.80;;;;;22.30;98924.00;;;;16774975;28;20205;-76
2022/08/02 23:52:42;;;;;;;5.27;4.60;;;;;22.20;98923.00;;;;16779542;28;20702;-76
